Westwood Lake, Colorado
Current Conditions -  °F | °C
As of 8:58 PM on Tuesday 25 Nov 2014 (Local Time) from KAFF Reporting Station
Clear Clear  
Wind Chill: 32°   Ceiling: Unl
Heat Index: 40°   Visibility: 10mi
Dew Point: 17°   Wind: 15mph
Humidity: 39%   Direction: 10°N
Pressure: 29.96"   Gusts: NA
Location:  39.0237°N, 105.099°W
Report Text: KAFF 260358Z AUTO 01013KT 10SM CLR 05/M08 A2996 RMK AO2 SLP146 T00451083
Loading
Personal Weather Stations






























Interactive Weather Map New forecast layout! Learn more

10-Day Weather Forecast

Advertisements
Track Severe Weather on mobile